createdAt,value
2018-10-02T00:01:44.323Z,0.43
2018-10-02T00:04:12.903Z,0.30
2018-10-02T00:06:41.470Z,0.40
2018-10-02T00:09:11.933Z,0.30
2018-10-02T00:11:45.882Z,0.80
2018-10-02T00:14:19.686Z,0.50
2018-10-02T00:16:48.305Z,0.40
2018-10-02T00:19:16.818Z,0.40
2018-10-02T00:21:45.506Z,0.57
2018-10-02T00:24:14.214Z,0.40
2018-10-02T00:26:43.094Z,0.20
2018-10-02T00:29:11.737Z,0.40
2018-10-02T00:31:40.665Z,0.30
2018-10-02T00:34:09.772Z,0.30
2018-10-02T00:36:38.311Z,0.30
2018-10-02T00:39:07.820Z,0.30
2018-10-02T00:41:36.638Z,0.40
2018-10-02T00:44:05.323Z,0.47
2018-10-02T00:46:34.030Z,0.60
2018-10-02T00:49:02.894Z,0.40
2018-10-02T00:51:31.634Z,0.50
2018-10-02T00:54:00.280Z,0.50
2018-10-02T00:56:28.838Z,0.43
2018-10-02T00:58:57.416Z,0.40
2018-10-02T01:01:26.039Z,0.40
2018-10-02T01:03:54.526Z,0.40
2018-10-02T01:06:23.434Z,0.47
2018-10-02T01:08:52.948Z,0.30
2018-10-02T01:11:21.869Z,0.40
2018-10-02T01:13:50.366Z,0.63
2018-10-02T01:16:18.990Z,0.20
2018-10-02T01:18:47.502Z,0.30
2018-10-02T01:21:16.033Z,0.30
2018-10-02T01:23:44.855Z,0.30
2018-10-02T01:26:13.484Z,0.27
2018-10-02T01:28:42.378Z,0.50
2018-10-02T01:31:10.938Z,0.33
2018-10-02T01:33:39.770Z,0.50
2018-10-02T01:36:09.046Z,0.30
2018-10-02T01:38:37.706Z,0.30
2018-10-02T01:41:06.273Z,0.30
2018-10-02T01:43:34.838Z,0.33
2018-10-02T01:46:03.938Z,0.30
2018-10-02T01:48:32.548Z,0.40
2018-10-02T01:51:01.351Z,0.60
2018-10-02T01:53:30.625Z,0.30
2018-10-02T01:55:59.233Z,0.30
2018-10-02T01:58:28.298Z,0.30
2018-10-02T02:00:57.013Z,0.30
2018-10-02T02:03:25.621Z,0.30
2018-10-02T02:05:54.218Z,0.30
2018-10-02T02:08:22.837Z,0.40
2018-10-02T02:10:51.487Z,0.30
2018-10-02T02:13:20.246Z,0.60
2018-10-02T02:15:48.767Z,0.40
2018-10-02T02:18:17.373Z,0.60
2018-10-02T02:20:46.158Z,0.30
2018-10-02T02:23:14.684Z,0.47
2018-10-02T02:25:43.246Z,0.40
2018-10-02T02:28:11.870Z,0.77
2018-10-02T02:30:40.645Z,0.47
2018-10-02T02:33:09.190Z,0.40
2018-10-02T02:35:38.316Z,0.90
2018-10-02T02:38:06.902Z,0.60
2018-10-02T02:40:35.504Z,0.57
2018-10-02T02:43:04.037Z,0.50
2018-10-02T02:45:32.594Z,0.30
2018-10-02T02:48:06.599Z,0.47
2018-10-02T02:50:40.577Z,0.53
2018-10-02T02:53:14.166Z,0.33
2018-10-02T02:55:42.767Z,0.70
2018-10-02T02:58:11.762Z,0.60
2018-10-02T03:00:40.380Z,0.30
2018-10-02T03:03:09.191Z,0.40
2018-10-02T03:05:37.852Z,0.47
2018-10-02T03:08:06.426Z,0.50
2018-10-02T03:10:35.026Z,0.43
2018-10-02T03:13:03.631Z,0.33
2018-10-02T03:15:32.435Z,0.60
2018-10-02T03:18:01.131Z,0.30
2018-10-02T03:20:29.967Z,0.30
2018-10-02T03:22:58.501Z,0.30
2018-10-02T03:25:27.216Z,0.73
2018-10-02T03:27:56.432Z,0.40
2018-10-02T03:30:25.061Z,0.30
2018-10-02T03:32:53.902Z,0.40
2018-10-02T03:35:22.569Z,0.40
2018-10-02T03:37:51.495Z,0.20
2018-10-02T03:40:20.074Z,0.40
2018-10-02T03:42:49.008Z,0.30
2018-10-02T03:45:17.537Z,0.37
2018-10-02T03:47:46.313Z,0.20
2018-10-02T03:50:14.944Z,0.47
2018-10-02T03:52:43.486Z,0.20
2018-10-02T03:55:12.069Z,0.30
2018-10-02T03:57:40.558Z,0.43
2018-10-02T04:00:09.442Z,0.93
2018-10-02T04:02:38.078Z,0.37
2018-10-02T04:05:07.340Z,0.53
2018-10-02T04:07:35.957Z,0.40
2018-10-02T04:10:04.615Z,0.40
2018-10-02T04:12:33.106Z,0.50
2018-10-02T04:15:01.593Z,0.53
2018-10-02T04:17:30.271Z,0.67
2018-10-02T04:19:58.925Z,0.30
2018-10-02T04:22:27.682Z,0.53
2018-10-02T04:24:56.396Z,0.60
2018-10-02T04:27:25.167Z,0.60
2018-10-02T04:29:54.049Z,0.57
2018-10-02T04:32:22.740Z,0.40
2018-10-02T04:34:51.394Z,0.60
2018-10-02T04:37:19.903Z,0.70
2018-10-02T04:39:48.631Z,0.50
2018-10-02T04:42:17.090Z,0.67
2018-10-02T04:44:45.838Z,0.50
2018-10-02T04:47:14.563Z,0.47
2018-10-02T04:49:43.378Z,0.40
2018-10-02T04:52:12.026Z,0.47
2018-10-02T04:54:40.696Z,0.20
2018-10-02T04:57:09.410Z,0.30
2018-10-02T04:59:38.136Z,0.63
2018-10-02T05:02:07.127Z,0.90
2018-10-02T05:04:35.657Z,0.47
2018-10-02T05:07:04.520Z,0.80
2018-10-02T05:09:33.059Z,0.60
2018-10-02T05:12:01.755Z,0.50
2018-10-02T05:14:30.323Z,0.47
2018-10-02T05:16:59.032Z,0.40
2018-10-02T05:19:27.883Z,1.00
2018-10-02T05:21:56.570Z,0.60
2018-10-02T05:24:25.440Z,1.13
2018-10-02T05:26:53.974Z,0.87
2018-10-02T05:29:23.012Z,0.80
2018-10-02T05:31:51.675Z,0.63
2018-10-02T05:34:20.256Z,0.83
2018-10-02T05:36:48.985Z,0.60
2018-10-02T05:39:17.589Z,0.50
2018-10-02T05:41:46.406Z,0.83
2018-10-02T05:44:15.605Z,0.43
2018-10-02T05:46:44.749Z,0.80
2018-10-02T05:49:13.279Z,0.30
2018-10-02T05:51:42.237Z,0.60
2018-10-02T05:54:10.774Z,0.43
2018-10-02T05:56:39.350Z,0.87
2018-10-02T05:59:07.955Z,0.77
2018-10-02T06:01:36.598Z,0.70
2018-10-02T06:04:05.548Z,0.70
2018-10-02T06:06:34.085Z,0.67
2018-10-02T06:09:03.355Z,0.60
2018-10-02T06:11:32.016Z,0.50
2018-10-02T06:14:00.678Z,0.50
2018-10-02T06:16:29.225Z,0.87
2018-10-02T06:18:57.931Z,0.40
2018-10-02T06:21:26.564Z,0.60
2018-10-02T06:23:55.466Z,0.40
2018-10-02T06:26:24.191Z,0.60
2018-10-02T06:28:52.694Z,0.30
2018-10-02T06:31:21.596Z,0.60
2018-10-02T06:33:50.138Z,1.00
2018-10-02T06:36:18.781Z,0.80
2018-10-02T06:38:47.391Z,0.70
2018-10-02T06:41:15.840Z,0.90
2018-10-02T06:43:44.739Z,0.50
2018-10-02T06:46:13.314Z,0.87
2018-10-02T06:48:42.334Z,0.73
2018-10-02T06:51:10.888Z,0.53
2018-10-02T06:53:39.904Z,0.83
2018-10-02T06:56:08.492Z,0.80
2018-10-02T06:58:37.096Z,0.63
2018-10-02T07:01:05.704Z,0.50
2018-10-02T07:03:34.227Z,0.60
2018-10-02T07:06:03.138Z,0.70
2018-10-02T07:08:31.690Z,0.50
2018-10-02T07:11:00.406Z,0.43
2018-10-02T07:13:29.041Z,0.80
2018-10-02T07:15:57.651Z,0.60
2018-10-02T07:18:26.208Z,0.93
2018-10-02T07:20:54.770Z,0.37
2018-10-02T07:23:23.579Z,0.30
2018-10-02T07:25:52.110Z,0.60
2018-10-02T07:28:21.028Z,0.43
2018-10-02T07:30:49.769Z,0.73
2018-10-02T07:33:18.462Z,0.37
2018-10-02T07:35:47.107Z,0.37
2018-10-02T07:38:15.650Z,0.50
2018-10-02T07:40:44.216Z,0.67
2018-10-02T07:43:12.795Z,0.30
2018-10-02T07:45:41.539Z,0.63
2018-10-02T07:48:10.170Z,0.50
2018-10-02T07:50:39.165Z,0.40
2018-10-02T07:53:07.779Z,0.57
2018-10-02T07:55:36.535Z,0.47
2018-10-02T07:58:05.171Z,0.40
2018-10-02T08:00:33.779Z,0.37
2018-10-02T08:03:02.357Z,0.50
2018-10-02T08:05:30.882Z,0.40
2018-10-02T08:07:59.718Z,0.40
2018-10-02T08:10:28.264Z,0.37
2018-10-02T08:12:57.225Z,0.40
2018-10-02T08:15:25.800Z,0.87
2018-10-02T08:17:54.452Z,0.97
2018-10-02T08:20:23.162Z,0.60
2018-10-02T08:22:51.678Z,0.30
2018-10-02T08:25:20.482Z,0.50
2018-10-02T08:27:48.992Z,0.40
2018-10-02T08:30:17.847Z,0.70
2018-10-02T08:32:46.692Z,0.57
2018-10-02T08:35:15.362Z,0.43
2018-10-02T08:37:44.245Z,0.30
2018-10-02T08:40:12.920Z,0.60
2018-10-02T08:42:41.451Z,0.33
2018-10-02T08:45:10.194Z,0.40
2018-10-02T08:47:38.875Z,0.60
2018-10-02T08:50:07.507Z,0.77
2018-10-02T08:52:36.402Z,0.50
2018-10-02T08:55:05.459Z,0.47
2018-10-02T08:57:34.368Z,0.50
2018-10-02T09:00:03.007Z,0.47
2018-10-02T09:02:31.566Z,0.63
2018-10-02T09:05:00.186Z,0.40
2018-10-02T09:07:28.702Z,0.60
2018-10-02T09:09:57.395Z,0.50
2018-10-02T09:12:25.941Z,0.47
2018-10-02T09:14:54.530Z,0.30
2018-10-02T09:17:23.148Z,0.50
2018-10-02T09:19:51.785Z,0.23
2018-10-02T09:22:20.378Z,0.30
2018-10-02T09:24:48.909Z,0.50
2018-10-02T09:27:17.762Z,0.40
2018-10-02T09:29:51.466Z,0.40
2018-10-02T09:32:25.246Z,0.57
2018-10-02T09:34:59.052Z,0.50
2018-10-02T09:38:30.472Z,0.50
2018-10-02T09:41:04.274Z,0.50
2018-10-02T09:43:38.999Z,0.50
2018-10-02T09:46:07.802Z,0.40
2018-10-02T09:48:36.340Z,0.50
2018-10-02T09:51:05.347Z,0.33
2018-10-02T09:53:34.090Z,0.30
2018-10-02T09:56:03.308Z,0.40
2018-10-02T09:58:31.907Z,0.70
2018-10-02T10:01:05.566Z,0.40
2018-10-02T10:03:34.398Z,0.70
2018-10-02T10:06:03.148Z,0.53
2018-10-02T10:08:31.731Z,0.30
2018-10-02T10:11:00.315Z,0.30
2018-10-02T10:13:28.948Z,0.30
2018-10-02T10:15:57.535Z,0.37
2018-10-02T10:18:26.178Z,0.50
2018-10-02T10:20:54.897Z,0.30
2018-10-02T10:23:23.849Z,0.40
2018-10-02T10:25:52.382Z,0.50
2018-10-02T10:28:21.504Z,0.60
2018-10-02T10:30:50.030Z,0.60
2018-10-02T10:33:18.924Z,0.53
2018-10-02T10:35:47.495Z,0.60
2018-10-02T10:38:16.203Z,0.47
2018-10-02T10:40:44.856Z,0.57
2018-10-02T10:43:13.447Z,0.47
2018-10-02T10:45:42.002Z,0.87
2018-10-02T10:48:10.532Z,0.60
2018-10-02T10:50:39.794Z,0.40
2018-10-02T10:53:08.409Z,0.50
2018-10-02T10:55:38.441Z,0.43
2018-10-02T10:58:07.050Z,0.30
2018-10-02T11:00:35.799Z,0.40
2018-10-02T11:03:04.497Z,0.60
2018-10-02T11:05:32.998Z,0.50
2018-10-02T11:08:01.814Z,0.20
2018-10-02T11:10:30.354Z,0.37
2018-10-02T11:12:59.294Z,0.30
2018-10-02T11:15:29.853Z,0.30
2018-10-02T11:17:59.114Z,0.30
2018-10-02T11:20:32.118Z,0.40
2018-10-02T11:23:00.619Z,0.40
2018-10-02T11:25:29.317Z,0.23
2018-10-02T11:27:57.953Z,0.20
2018-10-02T11:30:26.596Z,0.50
2018-10-02T11:32:55.325Z,0.50
2018-10-02T11:35:24.068Z,0.80
2018-10-02T11:37:52.644Z,0.50
2018-10-02T11:40:21.277Z,0.50
2018-10-02T11:42:50.264Z,0.57
2018-10-02T11:45:18.898Z,0.60
2018-10-02T11:47:47.451Z,0.73
2018-10-02T11:50:16.325Z,0.80
2018-10-02T11:52:45.881Z,1.00
2018-10-02T11:55:14.784Z,0.60
2018-10-02T11:57:43.301Z,0.63
2018-10-02T12:00:12.334Z,1.00
2018-10-02T12:02:40.876Z,0.90
2018-10-02T12:05:09.622Z,0.60
2018-10-02T12:07:38.294Z,0.80
2018-10-02T12:10:06.927Z,0.73
2018-10-02T12:12:35.518Z,0.67
2018-10-02T12:15:04.122Z,0.60
2018-10-02T12:17:32.935Z,1.10
2018-10-02T12:20:01.602Z,0.90
2018-10-02T12:22:30.340Z,0.97
2018-10-02T12:24:58.835Z,1.07
2018-10-02T12:27:27.691Z,1.37
2018-10-02T12:29:56.355Z,1.37
2018-10-02T12:32:24.891Z,1.33
2018-10-02T12:34:53.530Z,1.30
2018-10-02T12:37:22.026Z,1.60
2018-10-02T12:39:50.782Z,2.00
2018-10-02T12:42:19.432Z,1.97
2018-10-02T12:44:48.061Z,2.53
2018-10-02T12:47:16.656Z,1.90
2018-10-02T12:49:45.214Z,1.67
2018-10-02T12:52:13.824Z,2.03
2018-10-02T12:54:42.387Z,1.70
2018-10-02T12:57:11.394Z,1.73
2018-10-02T12:59:39.922Z,1.40
2018-10-02T13:02:08.679Z,1.03
2018-10-02T13:04:37.282Z,1.43
2018-10-02T13:07:05.985Z,1.67
2018-10-02T13:09:34.470Z,1.47
2018-10-02T13:12:03.041Z,1.80
2018-10-02T13:14:31.932Z,1.50
2018-10-02T13:17:00.414Z,1.63
2018-10-02T13:19:29.298Z,1.83
2018-10-02T13:21:57.883Z,2.07
2018-10-02T13:24:26.434Z,1.80
2018-10-02T13:26:54.978Z,1.93
2018-10-02T13:29:23.458Z,2.03
2018-10-02T13:31:53.546Z,1.33
2018-10-02T13:34:23.115Z,1.57
2018-10-02T13:36:51.839Z,1.70
2018-10-02T13:39:20.345Z,1.27
2018-10-02T13:41:49.393Z,1.60
2018-10-02T13:44:17.867Z,1.87
2018-10-02T13:46:46.761Z,1.87
2018-10-02T13:49:15.241Z,1.30
2018-10-02T13:51:43.938Z,1.37
2018-10-02T13:54:12.519Z,1.43
2018-10-02T13:56:41.078Z,1.00
2018-10-02T13:59:09.774Z,1.03
2018-10-02T14:01:38.370Z,1.30
2018-10-02T14:04:07.268Z,1.20
2018-10-02T14:06:35.749Z,1.10
2018-10-02T14:09:05.625Z,1.77
2018-10-02T14:11:34.174Z,1.17
2018-10-02T14:14:02.859Z,1.43
2018-10-02T14:16:32.178Z,0.83
2018-10-02T14:19:00.899Z,1.33
2018-10-02T14:21:29.588Z,1.10
2018-10-02T14:23:58.146Z,1.93
2018-10-02T14:26:27.084Z,1.40
2018-10-02T14:28:55.582Z,1.40
2018-10-02T14:31:24.388Z,1.23
2018-10-02T14:33:53.006Z,1.37
2018-10-02T14:36:21.619Z,1.10
2018-10-02T14:38:50.099Z,1.30
2018-10-02T14:41:18.668Z,1.13
2018-10-02T14:43:47.370Z,1.67
2018-10-02T14:46:15.947Z,1.47
2018-10-02T14:48:45.242Z,1.33
2018-10-02T14:51:13.731Z,1.20
2018-10-02T14:53:42.273Z,1.37
2018-10-02T14:56:10.843Z,1.13
2018-10-02T14:58:39.340Z,1.60
2018-10-02T15:01:07.982Z,2.03
2018-10-02T15:03:36.542Z,1.27
2018-10-02T15:06:05.442Z,1.37
2018-10-02T15:08:34.882Z,1.70
2018-10-02T15:11:03.619Z,1.10
2018-10-02T15:13:32.515Z,1.33
2018-10-02T15:16:01.226Z,1.50
2018-10-02T15:18:29.834Z,0.97
2018-10-02T15:20:58.714Z,1.07
2018-10-02T15:23:27.305Z,1.63
2018-10-02T15:25:55.847Z,1.40
2018-10-02T15:28:24.682Z,1.27
2018-10-02T15:30:53.223Z,1.20
2018-10-02T15:33:22.117Z,0.80
2018-10-02T15:35:50.741Z,1.40
2018-10-02T15:38:19.424Z,2.00
2018-10-02T15:40:47.978Z,1.47
2018-10-02T15:43:16.574Z,1.37
2018-10-02T15:45:45.238Z,1.50
2018-10-02T15:48:13.784Z,1.00
2018-10-02T15:50:42.672Z,0.53
2018-10-02T15:53:11.190Z,0.80
2018-10-02T15:55:40.190Z,1.00
2018-10-02T15:58:08.761Z,0.70
2018-10-02T16:00:37.476Z,1.00
2018-10-02T16:03:05.998Z,0.87
2018-10-02T16:05:34.587Z,0.53
2018-10-02T16:08:03.483Z,0.83
2018-10-02T16:10:32.056Z,1.20
2018-10-02T16:13:01.014Z,1.13
2018-10-02T16:15:29.578Z,1.07
2018-10-02T16:17:58.435Z,0.80
2018-10-02T16:20:27.188Z,1.00
2018-10-02T16:22:55.977Z,0.60
2018-10-02T16:25:24.590Z,0.70
2018-10-02T16:27:53.123Z,0.80
2018-10-02T16:30:21.804Z,1.37
2018-10-02T16:32:50.326Z,0.67
2018-10-02T16:35:19.141Z,1.57
2018-10-02T16:37:47.705Z,1.57
2018-10-02T16:40:16.522Z,0.90
2018-10-02T16:42:44.896Z,0.80
2018-10-02T16:45:13.385Z,0.80
2018-10-02T16:47:42.241Z,0.73
2018-10-02T16:50:10.741Z,0.93
2018-10-02T16:52:39.538Z,1.10
2018-10-02T16:55:07.690Z,0.73
2018-10-02T16:57:36.222Z,0.90
2018-10-02T17:00:05.434Z,1.20
2018-10-02T17:02:34.050Z,1.20
2018-10-02T17:05:02.878Z,1.53
2018-10-02T17:07:31.531Z,0.93
2018-10-02T17:10:00.638Z,0.87
2018-10-02T17:12:29.138Z,0.60
2018-10-02T17:14:58.042Z,0.70
2018-10-02T17:17:26.604Z,0.90
2018-10-02T17:19:55.302Z,1.17
2018-10-02T17:22:23.899Z,0.70
2018-10-02T17:24:52.535Z,1.17
2018-10-02T17:27:21.182Z,1.20
2018-10-02T17:29:49.686Z,0.83
2018-10-02T17:32:18.414Z,0.90
2018-10-02T17:34:47.108Z,1.50
2018-10-02T17:37:15.662Z,1.57
2018-10-02T17:39:44.206Z,1.30
2018-10-02T17:42:12.903Z,1.30
2018-10-02T17:44:41.622Z,0.83
2018-10-02T17:47:10.562Z,1.27
2018-10-02T17:49:39.442Z,1.17
2018-10-02T17:52:08.439Z,1.00
2018-10-02T17:54:37.420Z,1.13
2018-10-02T17:57:05.908Z,1.00
2018-10-02T17:59:34.566Z,0.87
2018-10-02T18:02:03.215Z,0.83
2018-10-02T18:04:31.687Z,0.73
2018-10-02T18:07:00.768Z,0.70
2018-10-02T18:09:30.561Z,0.93
2018-10-02T18:11:59.899Z,1.20
2018-10-02T18:14:30.556Z,1.20
2018-10-02T18:17:00.794Z,0.90
2018-10-02T18:19:30.490Z,1.33
2018-10-02T18:21:59.350Z,1.00
2018-10-02T18:24:28.317Z,0.93
2018-10-02T18:26:57.087Z,1.20
2018-10-02T18:29:25.679Z,1.10
2018-10-02T18:31:54.398Z,1.37
2018-10-02T18:34:22.931Z,1.10
2018-10-02T18:36:52.725Z,1.20
2018-10-02T18:39:21.291Z,1.23
2018-10-02T18:41:50.035Z,1.00
2018-10-02T18:44:18.782Z,1.27
2018-10-02T18:46:47.410Z,1.40
2018-10-02T18:49:15.974Z,1.17
2018-10-02T18:51:44.535Z,0.90
2018-10-02T18:54:13.313Z,0.80
2018-10-02T18:56:48.645Z,0.93
2018-10-02T18:59:17.227Z,1.00
2018-10-02T19:01:46.044Z,1.17
2018-10-02T19:04:14.641Z,1.10
2018-10-02T19:06:43.211Z,1.00
2018-10-02T19:09:17.202Z,0.70
2018-10-02T19:11:51.242Z,0.80
2018-10-02T19:14:20.713Z,0.80
2018-10-02T19:16:49.199Z,0.73
2018-10-02T19:19:23.091Z,0.90
2018-10-02T19:21:51.637Z,0.97
2018-10-02T19:24:20.174Z,1.27
2018-10-02T19:26:48.746Z,0.53
2018-10-02T19:29:17.442Z,0.30
2018-10-02T19:31:51.278Z,0.50
2018-10-02T19:34:19.895Z,0.30
2018-10-02T19:36:48.395Z,0.63
2018-10-02T19:39:22.232Z,0.37
2018-10-02T19:41:51.466Z,0.30
2018-10-02T19:44:19.955Z,0.40
2018-10-02T19:46:53.923Z,0.60
2018-10-02T19:49:23.918Z,0.70
2018-10-02T19:52:13.403Z,1.20
2018-10-02T19:54:42.144Z,0.93
2018-10-02T19:57:12.246Z,0.47
2018-10-02T19:59:40.896Z,0.50
2018-10-02T20:02:09.466Z,0.40
2018-10-02T20:04:38.566Z,0.67
2018-10-02T20:07:08.167Z,0.30
2018-10-02T20:09:36.971Z,0.60
2018-10-02T20:12:05.506Z,0.47
2018-10-02T20:14:34.449Z,0.37
2018-10-02T20:17:03.001Z,0.40
2018-10-02T20:19:31.638Z,0.30
2018-10-02T20:22:00.307Z,0.40
2018-10-02T20:24:28.840Z,0.40
2018-10-02T20:26:57.593Z,0.40
2018-10-02T20:29:26.171Z,0.40
2018-10-02T20:31:54.924Z,0.23
2018-10-02T20:34:23.541Z,0.37
2018-10-02T20:36:52.139Z,0.43
2018-10-02T20:39:20.614Z,0.40
2018-10-02T20:41:49.155Z,0.20
2018-10-02T20:44:17.783Z,0.10
2018-10-02T20:46:46.993Z,1.50
2018-10-02T20:49:15.800Z,0.50
2018-10-02T20:51:44.219Z,0.33
2018-10-02T20:54:13.290Z,0.20
2018-10-02T20:56:41.839Z,0.30
2018-10-02T20:59:10.374Z,0.20
2018-10-02T21:01:39.038Z,0.20
2018-10-02T21:04:07.822Z,0.20
2018-10-02T21:06:36.550Z,0.20
2018-10-02T21:09:06.328Z,0.30
2018-10-02T21:11:35.070Z,0.20
2018-10-02T21:14:03.612Z,0.20
2018-10-02T21:16:32.331Z,0.20
2018-10-02T21:19:00.930Z,0.30
2018-10-02T21:21:29.450Z,0.10
2018-10-02T21:23:57.998Z,0.20
2018-10-02T21:26:26.502Z,0.10
2018-10-02T21:28:55.359Z,0.20
2018-10-02T21:31:23.909Z,0.30
2018-10-02T21:33:52.616Z,1.63
2018-10-02T21:36:21.225Z,0.20
2018-10-02T21:38:49.842Z,0.13
2018-10-02T21:41:18.334Z,0.20
2018-10-02T21:43:46.889Z,0.20
2018-10-02T21:46:15.624Z,0.37
2018-10-02T21:48:44.144Z,0.30
2018-10-02T21:51:12.866Z,0.10
2018-10-02T21:53:41.391Z,0.20
2018-10-02T21:56:10.253Z,0.13
2018-10-02T21:58:39.516Z,0.20
2018-10-02T22:01:08.216Z,0.20
2018-10-02T22:03:39.589Z,0.27
2018-10-02T22:06:08.632Z,0.20
2018-10-02T22:08:37.328Z,0.20
2018-10-02T22:11:06.035Z,0.20
2018-10-02T22:13:34.579Z,0.20
2018-10-02T22:16:03.085Z,0.10
2018-10-02T22:18:31.830Z,0.20
2018-10-02T22:21:00.337Z,0.20
2018-10-02T22:23:29.210Z,0.10
2018-10-02T22:25:58.414Z,0.20
2018-10-02T22:28:27.291Z,0.10
2018-10-02T22:30:55.811Z,0.20
2018-10-02T22:33:24.511Z,0.10
2018-10-02T22:35:53.031Z,0.10
2018-10-02T22:38:21.743Z,0.10
2018-10-02T22:40:50.466Z,0.30
2018-10-02T22:43:19.032Z,0.10
2018-10-02T22:45:47.778Z,0.10
2018-10-02T22:48:16.334Z,0.13
2018-10-02T22:50:45.126Z,0.10
2018-10-02T22:53:13.717Z,0.20
2018-10-02T22:55:42.270Z,0.10
2018-10-02T22:58:10.756Z,0.20
2018-10-02T23:00:39.374Z,0.17
2018-10-02T23:03:08.204Z,0.20
2018-10-02T23:05:36.704Z,0.20
2018-10-02T23:08:05.378Z,0.27
2018-10-02T23:10:33.903Z,0.10
2018-10-02T23:13:02.535Z,0.20
2018-10-02T23:15:31.156Z,0.10
2018-10-02T23:17:59.762Z,0.20
2018-10-02T23:20:28.550Z,0.20
2018-10-02T23:22:57.104Z,0.10
2018-10-02T23:25:25.848Z,0.20
2018-10-02T23:27:54.452Z,0.20
2018-10-02T23:30:23.065Z,0.20
2018-10-02T23:32:51.728Z,0.20
2018-10-02T23:35:20.242Z,0.20
2018-10-02T23:37:49.142Z,0.30
2018-10-02T23:40:17.684Z,0.20
2018-10-02T23:42:46.338Z,0.30
2018-10-02T23:45:15.122Z,0.20
2018-10-02T23:47:43.741Z,0.13
2018-10-02T23:50:12.294Z,0.20
2018-10-02T23:52:40.822Z,0.30
2018-10-02T23:55:09.528Z,0.30
2018-10-02T23:57:38.113Z,0.13
